createdAt,value
2022-10-15T00:04:35.489Z,41.95
2022-10-15T00:09:41.833Z,41.33
2022-10-15T00:14:54.422Z,40.38
2022-10-15T00:19:58.496Z,38.13
2022-10-15T00:25:00.226Z,35.85
2022-10-15T00:30:07.250Z,37.70
2022-10-15T00:35:09.134Z,34.47
2022-10-15T00:40:12.229Z,35.65
2022-10-15T00:45:15.847Z,36.72
2022-10-15T00:50:22.996Z,39.80
2022-10-15T00:55:27.639Z,39.25
2022-10-15T01:00:31.636Z,36.65
2022-10-15T01:05:41.621Z,38.10
2022-10-15T01:10:57.185Z,36.92
2022-10-15T01:21:34.775Z,37.40
2022-10-15T01:26:53.903Z,43.17
2022-10-15T01:32:04.583Z,41.20
2022-10-15T01:37:27.352Z,46.13
2022-10-15T01:42:38.471Z,46.92
2022-10-15T01:47:48.440Z,48.92
2022-10-15T01:52:55.910Z,47.60
2022-10-15T01:58:05.740Z,52.03
2022-10-15T02:03:10.068Z,54.08
2022-10-15T02:08:34.651Z,51.70
2022-10-15T02:13:59.753Z,61.72
2022-10-15T02:19:29.648Z,62.38
2022-10-15T02:24:41.180Z,64.20
2022-10-15T02:29:49.462Z,68.88
2022-10-15T02:34:52.417Z,67.25
2022-10-15T02:39:56.784Z,72.45
2022-10-15T02:45:02.160Z,71.75
2022-10-15T02:50:07.888Z,75.72
2022-10-15T02:55:14.258Z,72.57
2022-10-15T03:00:18.993Z,77.30
2022-10-15T03:05:23.883Z,74.50
2022-10-15T03:10:28.496Z,74.35
2022-10-15T03:15:33.675Z,73.35
2022-10-15T03:20:41.913Z,76.35
2022-10-15T03:25:43.728Z,77.78
2022-10-15T03:30:49.655Z,76.63
2022-10-15T03:35:55.258Z,78.65
2022-10-15T03:40:58.157Z,72.35
2022-10-15T03:46:12.311Z,75.50
2022-10-15T03:51:22.029Z,74.90
2022-10-15T03:56:30.943Z,78.40
2022-10-15T04:01:51.750Z,75.53
2022-10-15T04:06:54.427Z,72.38
2022-10-15T04:12:01.249Z,77.35
2022-10-15T04:17:06.541Z,71.57
2022-10-15T04:22:09.155Z,72.55
2022-10-15T04:27:19.754Z,72.75
2022-10-15T04:32:23.944Z,70.78
2022-10-15T04:37:31.891Z,67.35
2022-10-15T04:42:34.380Z,71.93
2022-10-15T04:47:37.334Z,70.35
2022-10-15T04:52:48.865Z,70.25
2022-10-15T04:57:52.230Z,70.72
2022-10-15T05:03:03.832Z,68.15
2022-10-15T05:08:18.784Z,65.97
2022-10-15T05:13:40.664Z,67.57
2022-10-15T05:18:47.448Z,67.82
2022-10-15T05:23:51.508Z,67.47
2022-10-15T05:29:15.809Z,64.32
2022-10-15T05:34:19.471Z,63.95
2022-10-15T05:39:37.448Z,66.35
2022-10-15T05:44:39.206Z,66.93
2022-10-15T05:49:40.935Z,65.10
2022-10-15T05:54:56.425Z,64.03
2022-10-15T05:59:58.166Z,66.80
2022-10-15T06:05:02.409Z,63.08
2022-10-15T06:10:07.098Z,64.53
2022-10-15T06:15:11.697Z,64.80
2022-10-15T06:20:21.015Z,62.28
2022-10-15T06:25:26.014Z,65.22
2022-10-15T06:30:27.980Z,64.00
2022-10-15T06:35:35.248Z,63.40
2022-10-15T06:40:38.697Z,65.72
2022-10-15T06:45:43.088Z,78.65
2022-10-15T06:50:51.577Z,63.53
2022-10-15T06:55:59.671Z,60.88
2022-10-15T07:01:10.121Z,62.72
2022-10-15T07:06:15.445Z,61.22
2022-10-15T07:11:19.758Z,57.22
2022-10-15T07:16:26.483Z,59.58
2022-10-15T07:21:33.011Z,58.03
2022-10-15T07:26:41.617Z,56.95
2022-10-15T07:31:46.654Z,56.30
2022-10-15T07:36:52.291Z,55.25
2022-10-15T07:41:54.162Z,54.72
2022-10-15T07:46:55.971Z,55.25
2022-10-15T07:52:00.073Z,56.15
2022-10-15T07:57:07.373Z,54.40
2022-10-15T08:02:16.886Z,51.65
2022-10-15T08:07:20.867Z,52.22
2022-10-15T08:12:22.826Z,49.20
2022-10-15T08:17:26.885Z,50.70
2022-10-15T08:22:28.643Z,53.25
2022-10-15T08:27:32.077Z,53.17
2022-10-15T08:32:38.355Z,52.70
2022-10-15T08:37:42.327Z,52.15
2022-10-15T08:42:46.342Z,48.65
2022-10-15T08:47:53.466Z,52.88
2022-10-15T08:52:58.594Z,48.88
2022-10-15T08:58:13.952Z,48.90
2022-10-15T09:03:34.068Z,50.63
2022-10-15T09:09:08.870Z,50.77
2022-10-15T09:14:17.155Z,46.47
2022-10-15T09:19:24.786Z,46.50
2022-10-15T09:24:35.341Z,43.03
2022-10-15T09:29:48.161Z,42.90
2022-10-15T09:34:55.071Z,41.70
2022-10-15T09:40:10.731Z,41.83
2022-10-15T09:45:14.889Z,42.33
2022-10-15T09:55:41.344Z,40.30
2022-10-15T10:01:03.255Z,39.55
2022-10-15T10:06:12.962Z,43.45
2022-10-15T10:11:21.404Z,43.15
2022-10-15T10:16:23.995Z,37.20
2022-10-15T10:21:39.202Z,36.22
2022-10-15T10:26:43.498Z,36.15
2022-10-15T10:31:50.355Z,35.70
2022-10-15T10:37:03.732Z,33.33
2022-10-15T10:42:21.566Z,31.23
2022-10-15T10:47:25.781Z,29.58
2022-10-15T10:52:34.219Z,28.73
2022-10-15T10:57:48.471Z,27.92
2022-10-15T11:02:54.044Z,27.27
2022-10-15T11:08:18.914Z,26.20
2022-10-15T11:13:33.085Z,22.40
2022-10-15T11:19:19.833Z,21.38
2022-10-15T11:24:48.874Z,19.25
2022-10-15T11:30:06.516Z,19.13
2022-10-15T11:35:20.152Z,18.30
2022-10-15T11:40:53.543Z,17.98
2022-10-15T11:46:34.351Z,17.05
2022-10-15T11:52:08.163Z,17.17
2022-10-15T11:57:13.983Z,14.95
2022-10-15T12:02:37.856Z,14.10
2022-10-15T12:07:43.996Z,14.18
2022-10-15T12:12:53.618Z,13.38
2022-10-15T12:18:28.154Z,14.10
2022-10-15T12:23:37.714Z,14.15
2022-10-15T12:28:48.341Z,15.48
2022-10-15T12:33:55.555Z,14.32
2022-10-15T12:39:33.589Z,14.52
2022-10-15T12:44:53.098Z,13.77
2022-10-15T12:50:04.991Z,15.45
2022-10-15T12:55:39.475Z,14.75
2022-10-15T13:00:46.100Z,15.60
2022-10-15T13:05:53.115Z,15.85
2022-10-15T13:11:27.690Z,17.35
2022-10-15T13:16:34.679Z,17.00
2022-10-15T13:21:49.905Z,17.52
2022-10-15T13:26:52.392Z,18.42
2022-10-15T13:31:59.270Z,18.00
2022-10-15T13:37:04.623Z,17.83
2022-10-15T13:42:19.490Z,18.48
2022-10-15T13:47:29.916Z,20.17
2022-10-15T13:52:31.874Z,20.08
2022-10-15T13:57:36.168Z,20.80
2022-10-15T14:02:37.955Z,21.92
2022-10-15T14:07:54.736Z,22.27
2022-10-15T14:12:56.517Z,22.25
2022-10-15T14:18:00.576Z,23.08
2022-10-15T14:23:02.313Z,23.73
2022-10-15T14:28:05.564Z,26.48
2022-10-15T14:33:42.209Z,29.35
2022-10-15T14:38:49.710Z,31.00
2022-10-15T14:44:15.112Z,33.15
2022-10-15T14:49:31.807Z,36.65
2022-10-15T14:54:56.865Z,38.03
2022-10-15T15:00:05.327Z,38.83
2022-10-15T15:05:11.226Z,39.97
2022-10-15T15:10:18.892Z,40.22
2022-10-15T15:15:24.940Z,40.47
2022-10-15T15:20:26.870Z,43.63
2022-10-15T15:25:41.840Z,42.22
2022-10-15T15:30:45.130Z,43.92
2022-10-15T15:35:51.521Z,42.38
2022-10-15T15:40:53.188Z,41.35
2022-10-15T15:45:54.999Z,40.97
2022-10-15T15:51:06.035Z,41.47
2022-10-15T15:56:07.788Z,43.20
2022-10-15T16:01:12.197Z,43.22
2022-10-15T16:06:14.068Z,40.28
2022-10-15T16:11:15.852Z,39.05
2022-10-15T16:16:17.622Z,39.22
2022-10-15T16:21:26.412Z,41.50
2022-10-15T16:26:28.962Z,35.47
2022-10-15T16:31:36.922Z,35.20
2022-10-15T16:36:40.956Z,35.60
2022-10-15T16:41:42.679Z,37.63
2022-10-15T16:46:46.699Z,32.17
2022-10-15T16:51:56.032Z,29.02
2022-10-15T16:57:03.389Z,30.40
2022-10-15T17:02:06.203Z,29.02
2022-10-15T17:07:10.063Z,28.15
2022-10-15T17:12:17.255Z,27.70
2022-10-15T17:17:25.212Z,28.25
2022-10-15T17:22:30.784Z,26.83
2022-10-15T17:27:35.716Z,26.25
2022-10-15T17:32:37.598Z,30.17
2022-10-15T17:37:41.464Z,28.58
2022-10-15T17:42:47.815Z,29.67
2022-10-15T17:47:52.535Z,28.33
2022-10-15T17:52:54.988Z,26.33
2022-10-15T17:57:59.762Z,25.88
2022-10-15T18:03:06.907Z,24.25
2022-10-15T18:08:12.279Z,24.13
2022-10-15T18:13:14.048Z,20.02
2022-10-15T18:18:22.054Z,21.83
2022-10-15T18:23:25.986Z,17.60
2022-10-15T18:28:30.330Z,16.52
2022-10-15T18:33:32.376Z,15.32
2022-10-15T18:38:37.877Z,14.63
2022-10-15T18:43:41.680Z,13.18
2022-10-15T18:48:44.084Z,14.55
2022-10-15T18:53:46.136Z,11.65
2022-10-15T18:58:52.410Z,12.93
2022-10-15T19:03:58.223Z,13.85
2022-10-15T19:09:02.089Z,12.43
2022-10-15T19:14:08.926Z,13.90
2022-10-15T19:19:14.936Z,15.02
2022-10-15T19:24:21.213Z,13.30
2022-10-15T19:29:23.094Z,15.70
2022-10-15T19:34:29.126Z,15.93
2022-10-15T19:39:32.776Z,14.05
2022-10-15T19:44:35.114Z,13.77
2022-10-15T19:49:39.491Z,12.93
2022-10-15T19:54:45.904Z,15.50
2022-10-15T19:59:53.461Z,12.25
2022-10-15T20:05:00.042Z,12.35
2022-10-15T20:10:04.217Z,12.15
2022-10-15T20:15:09.421Z,11.63
2022-10-15T20:20:16.049Z,10.98
2022-10-15T20:25:17.788Z,9.23
2022-10-15T20:30:19.493Z,8.55
2022-10-15T20:35:23.820Z,7.57
2022-10-15T20:40:25.684Z,6.68
2022-10-15T20:45:34.576Z,6.78
2022-10-15T20:50:38.699Z,6.57
2022-10-15T20:55:44.988Z,5.65
2022-10-15T21:00:51.572Z,6.30
2022-10-15T21:05:57.828Z,7.03
2022-10-15T21:11:06.500Z,7.00
2022-10-15T21:16:11.229Z,6.15
2022-10-15T21:21:17.739Z,6.72
2022-10-15T21:26:23.837Z,7.72
2022-10-15T21:31:28.183Z,6.53
2022-10-15T21:36:35.387Z,7.07
2022-10-15T21:41:38.995Z,6.45
2022-10-15T21:46:43.380Z,6.07
2022-10-15T21:51:45.066Z,5.70
2022-10-15T21:56:47.540Z,6.55
2022-10-15T22:01:54.723Z,5.93
2022-10-15T22:06:59.868Z,5.65
2022-10-15T22:12:01.643Z,5.20
2022-10-15T22:17:05.976Z,4.82
2022-10-15T22:22:09.627Z,4.72
2022-10-15T22:27:13.564Z,4.53
2022-10-15T22:32:17.746Z,4.97
2022-10-15T22:37:21.691Z,4.50
2022-10-15T22:42:25.760Z,4.05
2022-10-15T22:47:34.505Z,4.43
2022-10-15T22:52:38.305Z,4.15
2022-10-15T22:57:42.566Z,4.80
2022-10-15T23:02:49.012Z,6.05
2022-10-15T23:07:53.038Z,4.40
2022-10-15T23:12:57.802Z,4.65
2022-10-15T23:18:04.562Z,4.43
2022-10-15T23:23:08.829Z,3.90
2022-10-15T23:28:15.369Z,3.80
2022-10-15T23:33:19.226Z,4.13
2022-10-15T23:38:23.236Z,3.85
2022-10-15T23:43:24.953Z,3.83
2022-10-15T23:48:27.395Z,3.38
2022-10-15T23:53:34.125Z,3.28
2022-10-15T23:58:38.456Z,3.17
